createdAt,value
2023-05-21T00:01:50.086Z,16.24
2023-05-21T00:04:17.855Z,16.25
2023-05-21T00:06:44.838Z,16.23
2023-05-21T00:09:13.075Z,16.23
2023-05-21T00:11:39.858Z,16.23
2023-05-21T00:14:06.598Z,16.24
2023-05-21T00:16:33.387Z,16.24
2023-05-21T00:19:00.226Z,16.24
2023-05-21T00:21:27.077Z,16.25
2023-05-21T00:23:57.063Z,16.27
2023-05-21T00:26:24.336Z,16.29
2023-05-21T00:28:52.837Z,16.28
2023-05-21T00:31:19.752Z,16.27
2023-05-21T00:33:46.612Z,16.27
2023-05-21T00:36:14.647Z,16.27
2023-05-21T00:38:45.798Z,16.23
2023-05-21T00:41:13.151Z,16.21
2023-05-21T00:43:42.331Z,16.18
2023-05-21T00:46:16.809Z,16.14
2023-05-21T00:48:47.357Z,16.09
2023-05-21T00:51:14.547Z,16.04
2023-05-21T00:53:41.382Z,15.99
2023-05-21T00:56:08.209Z,15.95
2023-05-21T00:58:35.032Z,15.91
2023-05-21T01:01:03.854Z,15.85
2023-05-21T01:03:31.067Z,15.78
2023-05-21T01:06:00.293Z,15.70
2023-05-21T01:08:28.925Z,15.61
2023-05-21T01:10:55.807Z,15.54
2023-05-21T01:13:23.293Z,15.52
2023-05-21T01:15:50.597Z,15.51
2023-05-21T01:18:20.153Z,15.49
2023-05-21T01:20:50.309Z,15.47
2023-05-21T01:23:17.491Z,15.47
2023-05-21T01:25:44.928Z,15.44
2023-05-21T01:28:12.529Z,15.41
2023-05-21T01:30:42.379Z,15.40
2023-05-21T01:33:24.567Z,15.40
2023-05-21T01:35:54.647Z,15.38
2023-05-21T01:38:43.853Z,15.37
2023-05-21T01:41:11.685Z,15.33
2023-05-21T01:43:39.798Z,15.31
2023-05-21T01:46:08.255Z,15.30
2023-05-21T01:48:35.963Z,15.28
2023-05-21T01:51:04.505Z,15.26
2023-05-21T01:53:31.417Z,15.20
2023-05-21T01:55:59.432Z,15.12
2023-05-21T01:58:26.715Z,15.05
2023-05-21T02:00:53.506Z,14.95
2023-05-21T02:03:20.815Z,14.85
2023-05-21T02:05:47.842Z,14.75
2023-05-21T02:08:19.772Z,14.65
2023-05-21T02:10:46.583Z,14.56
2023-05-21T02:13:13.428Z,14.49
2023-05-21T02:15:40.732Z,14.44
2023-05-21T02:18:08.736Z,14.39
2023-05-21T02:20:36.771Z,14.35
2023-05-21T02:23:03.555Z,14.34
2023-05-21T02:25:30.642Z,14.34
2023-05-21T02:27:57.437Z,14.37
2023-05-21T02:30:24.224Z,14.41
2023-05-21T02:32:51.096Z,14.43
2023-05-21T02:35:17.965Z,14.47
2023-05-21T02:37:45.049Z,14.49
2023-05-21T02:40:12.546Z,14.50
2023-05-21T02:42:40.362Z,14.50
2023-05-21T02:45:09.078Z,14.50
2023-05-21T02:47:36.362Z,14.49
2023-05-21T02:50:03.402Z,14.48
2023-05-21T02:52:32.452Z,14.48
2023-05-21T02:54:59.232Z,14.47
2023-05-21T02:57:26.166Z,14.49
2023-05-21T02:59:53.046Z,14.49
2023-05-21T03:02:20.111Z,14.49
2023-05-21T03:04:47.105Z,14.49
2023-05-21T03:07:14.668Z,14.53
2023-05-21T03:09:42.415Z,14.56
2023-05-21T03:12:09.668Z,14.60
2023-05-21T03:14:38.187Z,14.63
2023-05-21T03:17:08.587Z,14.67
2023-05-21T03:19:36.521Z,14.72
2023-05-21T03:22:04.716Z,14.74
2023-05-21T03:24:33.639Z,14.69
2023-05-21T03:27:06.553Z,14.61
2023-05-21T03:29:33.914Z,14.55
2023-05-21T03:32:01.934Z,14.53
2023-05-21T03:34:30.308Z,14.54
2023-05-21T03:36:57.221Z,14.58
2023-05-21T03:39:24.439Z,14.61
2023-05-21T03:41:51.592Z,14.65
2023-05-21T03:44:32.648Z,14.70
2023-05-21T03:47:18.520Z,14.74
2023-05-21T03:49:45.801Z,14.75
2023-05-21T03:52:12.598Z,14.78
2023-05-21T03:54:39.713Z,14.79
2023-05-21T03:57:07.753Z,14.82
2023-05-21T03:59:35.071Z,14.82
2023-05-21T04:02:02.233Z,14.80
2023-05-21T04:04:29.698Z,14.80
2023-05-21T04:06:56.814Z,14.81
2023-05-21T04:09:23.616Z,14.86
2023-05-21T04:11:52.724Z,14.90
2023-05-21T04:14:19.721Z,14.96
2023-05-21T04:16:49.259Z,15.04
2023-05-21T04:19:16.245Z,15.15
2023-05-21T04:21:45.064Z,15.25
2023-05-21T04:24:12.485Z,15.36
2023-05-21T04:26:50.052Z,15.49
2023-05-21T04:29:18.266Z,15.60
2023-05-21T04:31:45.409Z,15.73
2023-05-21T04:34:13.437Z,15.86
2023-05-21T04:36:40.261Z,15.98
2023-05-21T04:39:08.115Z,16.11
2023-05-21T04:41:34.946Z,16.23
2023-05-21T04:44:01.739Z,16.34
2023-05-21T04:46:31.102Z,16.42
2023-05-21T04:48:58.334Z,16.49
2023-05-21T04:51:26.785Z,16.57
2023-05-21T04:53:54.365Z,16.66
2023-05-21T04:56:22.439Z,16.75
2023-05-21T04:58:49.554Z,16.80
2023-05-21T05:01:16.544Z,16.81
2023-05-21T05:03:43.489Z,16.82
2023-05-21T05:06:10.528Z,16.86
2023-05-21T05:08:37.428Z,16.92
2023-05-21T05:11:04.581Z,17.01
2023-05-21T05:13:31.629Z,17.09
2023-05-21T05:15:58.551Z,17.15
2023-05-21T05:18:26.781Z,17.18
2023-05-21T05:20:54.716Z,17.21
2023-05-21T05:23:21.649Z,17.28
2023-05-21T05:25:48.537Z,17.35
2023-05-21T05:28:15.487Z,17.41
2023-05-21T05:30:42.411Z,17.48
2023-05-21T05:33:16.809Z,17.56
2023-05-21T05:35:43.671Z,17.65
2023-05-21T05:38:10.601Z,17.76
2023-05-21T05:40:37.702Z,17.86
2023-05-21T05:43:04.969Z,17.97
2023-05-21T05:45:32.472Z,18.07
2023-05-21T05:47:59.852Z,18.16
2023-05-21T05:50:27.422Z,18.23
2023-05-21T05:52:54.419Z,18.30
2023-05-21T05:55:22.379Z,18.32
2023-05-21T05:57:49.393Z,18.39
2023-05-21T06:00:17.692Z,18.49
2023-05-21T06:02:46.523Z,18.59
2023-05-21T06:05:13.420Z,18.66
2023-05-21T06:07:41.107Z,18.72
2023-05-21T06:10:08.885Z,18.73
2023-05-21T06:12:35.712Z,18.72
2023-05-21T06:15:02.577Z,18.77
2023-05-21T06:17:29.879Z,18.82
2023-05-21T06:19:56.709Z,18.88
2023-05-21T06:22:25.695Z,18.94
2023-05-21T06:24:52.891Z,19.01
2023-05-21T06:27:21.016Z,19.07
2023-05-21T06:29:48.515Z,19.12
2023-05-21T06:32:15.425Z,19.20
2023-05-21T06:34:42.362Z,19.28
2023-05-21T06:37:09.200Z,19.35
2023-05-21T06:39:36.069Z,19.39
2023-05-21T06:42:03.337Z,19.43
2023-05-21T06:44:59.730Z,19.45
2023-05-21T06:47:30.863Z,19.48
2023-05-21T06:49:59.446Z,19.52
2023-05-21T06:52:29.083Z,19.57
2023-05-21T06:54:56.023Z,19.61
2023-05-21T06:57:23.249Z,19.63
2023-05-21T06:59:50.114Z,19.60
2023-05-21T07:02:17.153Z,19.62
2023-05-21T07:04:44.054Z,19.62
2023-05-21T07:07:11.109Z,19.62
2023-05-21T07:09:38.021Z,19.69
2023-05-21T07:12:05.579Z,19.76
2023-05-21T07:14:32.932Z,19.78
2023-05-21T07:16:59.904Z,19.76
2023-05-21T07:19:26.946Z,19.77
2023-05-21T07:21:53.923Z,19.78
2023-05-21T07:24:21.282Z,19.76
2023-05-21T07:26:48.474Z,19.79
2023-05-21T07:29:16.759Z,19.83
2023-05-21T07:31:43.825Z,19.90
2023-05-21T07:34:11.330Z,19.94
2023-05-21T07:36:39.251Z,19.93
2023-05-21T07:39:06.651Z,19.92
2023-05-21T07:41:33.557Z,19.93
2023-05-21T07:44:01.851Z,19.97
2023-05-21T07:46:28.808Z,20.00
2023-05-21T07:48:56.372Z,20.04
2023-05-21T07:51:23.405Z,20.09
2023-05-21T07:53:50.173Z,20.13
2023-05-21T07:56:17.846Z,20.18
2023-05-21T07:58:46.042Z,20.26
2023-05-21T08:01:13.325Z,20.29
2023-05-21T08:03:40.755Z,20.30
2023-05-21T08:06:07.747Z,20.31
2023-05-21T08:08:34.700Z,20.31
2023-05-21T08:11:02.017Z,20.34
2023-05-21T08:13:29.692Z,20.40
2023-05-21T08:15:56.763Z,20.49
2023-05-21T08:18:24.036Z,20.53
2023-05-21T08:20:51.855Z,20.55
2023-05-21T08:23:19.622Z,20.61
2023-05-21T08:25:49.781Z,20.64
2023-05-21T08:28:16.893Z,20.62
2023-05-21T08:30:43.743Z,20.63
2023-05-21T08:33:11.765Z,20.64
2023-05-21T08:35:39.162Z,20.68
2023-05-21T08:38:17.007Z,20.71
2023-05-21T08:41:04.603Z,20.72
2023-05-21T08:43:31.466Z,20.70
2023-05-21T08:46:01.267Z,20.68
2023-05-21T08:48:31.377Z,20.69
2023-05-21T08:50:59.227Z,20.70
2023-05-21T08:53:30.423Z,20.74
2023-05-21T08:55:57.720Z,20.83
2023-05-21T08:58:30.297Z,20.95
2023-05-21T09:00:57.922Z,21.04
2023-05-21T09:03:26.138Z,21.11
2023-05-21T09:05:53.228Z,21.16
2023-05-21T09:08:24.382Z,21.25
2023-05-21T09:10:56.692Z,21.38
2023-05-21T09:13:26.936Z,21.48
2023-05-21T09:15:55.021Z,21.59
2023-05-21T09:18:22.507Z,21.68
2023-05-21T09:20:59.536Z,21.72
2023-05-21T09:23:27.123Z,21.73
2023-05-21T09:25:54.392Z,21.74
2023-05-21T09:28:25.822Z,21.76
2023-05-21T09:30:54.383Z,21.79
2023-05-21T09:33:29.671Z,21.81
2023-05-21T09:35:56.815Z,21.87
2023-05-21T09:38:25.156Z,21.93
2023-05-21T09:40:54.356Z,21.96
2023-05-21T09:43:21.590Z,21.98
2023-05-21T09:45:52.739Z,22.02
2023-05-21T09:48:42.595Z,22.09
2023-05-21T09:51:16.185Z,22.19
2023-05-21T09:53:58.737Z,22.27
2023-05-21T09:56:27.329Z,22.38
2023-05-21T09:58:55.216Z,22.49
2023-05-21T10:01:22.312Z,22.59
2023-05-21T10:03:56.017Z,22.63
2023-05-21T10:06:27.565Z,22.65
2023-05-21T10:08:59.173Z,22.70
2023-05-21T10:11:27.367Z,22.76
2023-05-21T10:14:08.180Z,22.84
2023-05-21T10:16:36.469Z,22.96
2023-05-21T10:19:04.908Z,23.03
2023-05-21T10:21:31.911Z,23.06
2023-05-21T10:23:58.957Z,23.10
2023-05-21T10:26:26.464Z,23.19
2023-05-21T10:28:53.678Z,23.25
2023-05-21T10:31:20.719Z,23.31
2023-05-21T10:33:47.539Z,23.35
2023-05-21T10:36:19.090Z,23.40
2023-05-21T10:38:45.914Z,23.47
2023-05-21T10:41:12.904Z,23.52
2023-05-21T10:44:18.461Z,23.54
2023-05-21T10:46:54.553Z,23.59
2023-05-21T10:49:39.224Z,23.64
2023-05-21T10:52:31.869Z,23.67
2023-05-21T10:55:23.539Z,23.71
2023-05-21T10:58:21.832Z,23.73
2023-05-21T11:00:48.895Z,23.73
2023-05-21T11:03:15.905Z,23.76
2023-05-21T11:05:54.188Z,23.82
2023-05-21T11:08:25.563Z,23.93
2023-05-21T11:10:58.010Z,24.01
2023-05-21T11:13:32.740Z,24.04
2023-05-21T11:15:59.865Z,24.05
2023-05-21T11:18:35.843Z,24.11
2023-05-21T11:21:18.182Z,24.23
2023-05-21T11:23:51.557Z,24.41
2023-05-21T11:26:19.211Z,24.59
2023-05-21T11:28:46.202Z,24.71
2023-05-21T11:31:30.483Z,24.85
2023-05-21T11:34:16.332Z,25.03
2023-05-21T11:39:48.295Z,25.39
2023-05-21T11:42:31.843Z,25.56
2023-05-21T11:44:59.439Z,25.63
2023-05-21T11:47:26.970Z,25.63
2023-05-21T11:49:53.994Z,25.58
2023-05-21T11:52:20.924Z,25.56
2023-05-21T11:54:55.611Z,25.56
2023-05-21T11:57:23.958Z,25.54
2023-05-21T11:59:53.687Z,25.53
2023-05-21T12:02:21.629Z,25.55
2023-05-21T12:04:49.883Z,25.69
2023-05-21T12:07:17.993Z,25.89
2023-05-21T12:09:49.472Z,26.00
2023-05-21T12:12:21.546Z,25.96
2023-05-21T12:14:50.027Z,25.91
2023-05-21T12:17:20.099Z,25.93
2023-05-21T12:19:47.011Z,26.00
2023-05-21T12:22:15.533Z,26.07
2023-05-21T12:24:43.905Z,26.12
2023-05-21T12:27:13.012Z,26.13
2023-05-21T12:29:42.543Z,26.26
2023-05-21T12:32:12.662Z,26.44
2023-05-21T12:34:47.675Z,26.56
2023-05-21T12:37:25.480Z,26.59
2023-05-21T12:39:54.274Z,26.64
2023-05-21T12:42:34.697Z,26.68
2023-05-21T12:45:06.095Z,26.74
2023-05-21T12:47:33.554Z,26.84
2023-05-21T12:50:04.339Z,27.01
2023-05-21T12:52:31.309Z,27.12
2023-05-21T12:54:58.342Z,27.18
2023-05-21T12:57:41.078Z,27.14
2023-05-21T13:00:10.370Z,27.20
2023-05-21T13:02:44.575Z,27.39
2023-05-21T13:05:17.652Z,27.59
2023-05-21T13:07:46.912Z,27.71
2023-05-21T13:10:16.220Z,27.82
2023-05-21T13:12:44.345Z,27.95
2023-05-21T13:15:11.710Z,28.12
2023-05-21T13:17:38.722Z,28.30
2023-05-21T13:20:12.026Z,28.46
2023-05-21T13:22:43.383Z,28.54
2023-05-21T13:25:11.405Z,28.52
2023-05-21T13:27:39.352Z,28.46
2023-05-21T13:30:07.115Z,28.49
2023-05-21T13:32:34.315Z,28.52
2023-05-21T13:35:01.822Z,28.57
2023-05-21T13:37:28.834Z,28.71
2023-05-21T13:39:55.743Z,28.89
2023-05-21T13:42:22.715Z,28.98
2023-05-21T13:44:49.512Z,28.97
2023-05-21T13:47:16.435Z,29.00
2023-05-21T13:49:43.468Z,29.03
2023-05-21T13:52:10.369Z,29.00
2023-05-21T13:54:37.154Z,29.05
2023-05-21T13:57:04.160Z,29.04
2023-05-21T13:59:33.442Z,29.14
2023-05-21T14:02:01.177Z,29.32
2023-05-21T14:04:28.270Z,29.44
2023-05-21T14:06:55.597Z,29.54
2023-05-21T14:09:23.676Z,29.60
2023-05-21T14:11:50.916Z,29.70
2023-05-21T14:14:19.366Z,29.84
2023-05-21T14:16:47.396Z,30.01
2023-05-21T14:19:14.754Z,30.16
2023-05-21T14:21:41.850Z,30.17
2023-05-21T14:24:08.650Z,29.99
2023-05-21T14:26:37.534Z,29.88
2023-05-21T14:29:04.309Z,29.82
2023-05-21T14:31:31.421Z,29.86
2023-05-21T14:33:58.472Z,29.90
2023-05-21T14:36:26.158Z,30.11
2023-05-21T14:38:53.066Z,30.38
2023-05-21T14:41:19.967Z,30.59
2023-05-21T14:43:47.396Z,30.91
2023-05-21T14:46:14.337Z,31.13
2023-05-21T14:48:41.208Z,31.25
2023-05-21T14:51:08.442Z,31.36
2023-05-21T14:53:35.677Z,31.40
2023-05-21T14:56:02.559Z,31.51
2023-05-21T14:58:29.339Z,31.74
2023-05-21T15:00:56.268Z,32.11
2023-05-21T15:03:23.380Z,32.74
2023-05-21T15:05:50.299Z,33.61
2023-05-21T15:08:17.214Z,34.54
2023-05-21T15:10:44.061Z,35.32
2023-05-21T15:13:11.093Z,36.01
2023-05-21T15:15:38.089Z,36.76
2023-05-21T15:18:05.205Z,37.61
2023-05-21T15:20:32.099Z,38.48
2023-05-21T15:23:15.416Z,39.32
2023-05-21T15:25:44.223Z,39.89
2023-05-21T15:28:12.411Z,40.41
2023-05-21T15:30:39.736Z,41.10
2023-05-21T15:33:06.606Z,41.76
2023-05-21T15:35:35.410Z,42.41
2023-05-21T15:38:02.872Z,42.80
2023-05-21T15:40:29.962Z,42.93
2023-05-21T15:42:57.146Z,43.17
2023-05-21T15:45:24.776Z,43.23
2023-05-21T15:47:51.660Z,43.04
2023-05-21T15:50:18.516Z,42.71
2023-05-21T15:52:45.309Z,42.39
2023-05-21T15:55:14.405Z,42.35
2023-05-21T15:57:41.487Z,42.50
2023-05-21T16:00:09.956Z,42.54
2023-05-21T16:02:37.119Z,42.44
2023-05-21T16:05:05.343Z,42.32
2023-05-21T16:07:32.104Z,42.23
2023-05-21T16:09:58.885Z,41.84
2023-05-21T16:12:26.019Z,41.55
2023-05-21T16:14:53.040Z,41.29
2023-05-21T16:17:20.021Z,40.89
2023-05-21T16:19:47.706Z,40.45
2023-05-21T16:22:14.756Z,40.16
2023-05-21T16:24:41.644Z,40.18
2023-05-21T16:27:08.392Z,40.22
2023-05-21T16:29:35.429Z,40.04
2023-05-21T16:32:02.257Z,39.99
2023-05-21T16:34:29.272Z,39.96
2023-05-21T16:36:56.895Z,39.72
2023-05-21T16:39:23.749Z,39.60
2023-05-21T16:41:50.561Z,39.52
2023-05-21T16:44:17.550Z,39.48
2023-05-21T16:46:44.357Z,39.51
2023-05-21T16:49:11.274Z,39.41
2023-05-21T16:51:38.066Z,39.11
2023-05-21T16:54:05.417Z,38.61
2023-05-21T16:56:32.402Z,38.27
2023-05-21T16:58:59.270Z,38.07
2023-05-21T17:01:26.155Z,37.76
2023-05-21T17:03:53.477Z,37.43
2023-05-21T17:06:20.565Z,36.96
2023-05-21T17:08:47.355Z,36.39
2023-05-21T17:11:14.583Z,35.64
2023-05-21T17:13:41.903Z,34.59
2023-05-21T17:16:08.833Z,33.67
2023-05-21T17:18:35.893Z,32.82
2023-05-21T17:21:02.650Z,31.95
2023-05-21T17:23:29.506Z,31.20
2023-05-21T17:25:56.396Z,30.44
2023-05-21T17:28:23.408Z,29.72
2023-05-21T17:30:50.721Z,29.04
2023-05-21T17:33:17.881Z,28.47
2023-05-21T17:35:44.708Z,27.96
2023-05-21T17:38:11.632Z,27.35
2023-05-21T17:40:38.442Z,26.74
2023-05-21T17:43:07.285Z,26.19
2023-05-21T17:45:34.516Z,25.70
2023-05-21T17:48:01.349Z,25.31
2023-05-21T17:50:28.310Z,24.94
2023-05-21T17:52:55.398Z,24.63
2023-05-21T17:55:22.335Z,24.29
2023-05-21T17:57:49.187Z,23.97
2023-05-21T18:00:16.457Z,23.63
2023-05-21T18:02:43.274Z,23.26
2023-05-21T18:05:10.268Z,22.94
2023-05-21T18:07:37.428Z,22.65
2023-05-21T18:10:04.548Z,22.36
2023-05-21T18:12:31.457Z,22.12
2023-05-21T18:14:58.396Z,21.92
2023-05-21T18:17:25.293Z,21.73
2023-05-21T18:19:52.148Z,21.56
2023-05-21T18:22:18.997Z,21.41
2023-05-21T18:24:46.329Z,21.22
2023-05-21T18:27:13.721Z,21.02
2023-05-21T18:29:40.543Z,20.83
2023-05-21T18:32:07.789Z,20.70
2023-05-21T18:34:34.890Z,20.55
2023-05-21T18:37:01.831Z,20.42
2023-05-21T18:39:28.756Z,20.30
2023-05-21T18:42:11.476Z,20.16
2023-05-21T18:44:39.578Z,20.05
2023-05-21T18:47:07.764Z,19.89
2023-05-21T18:49:36.382Z,19.79
2023-05-21T18:52:04.959Z,19.71
2023-05-21T18:54:31.932Z,19.62
2023-05-21T18:57:00.580Z,19.53
2023-05-21T18:59:28.572Z,19.46
2023-05-21T19:01:55.558Z,19.38
2023-05-21T19:04:22.577Z,19.31
2023-05-21T19:06:49.432Z,19.22
2023-05-21T19:09:16.221Z,19.15
2023-05-21T19:11:43.177Z,19.10
2023-05-21T19:14:10.048Z,19.06
2023-05-21T19:16:37.023Z,19.01
2023-05-21T19:19:04.306Z,18.97
2023-05-21T19:21:31.624Z,18.93
2023-05-21T19:23:58.831Z,18.86
2023-05-21T19:26:25.867Z,18.80
2023-05-21T19:28:56.605Z,18.72
2023-05-21T19:31:23.706Z,18.67
2023-05-21T19:33:51.512Z,18.62
2023-05-21T19:36:18.771Z,18.59
2023-05-21T19:38:48.176Z,18.55
2023-05-21T19:41:18.475Z,18.51
2023-05-21T19:43:46.014Z,18.48
2023-05-21T19:46:15.891Z,18.45
2023-05-21T19:48:45.069Z,18.42
2023-05-21T19:51:12.224Z,18.40
2023-05-21T19:53:39.136Z,18.37
2023-05-21T19:56:06.836Z,18.31
2023-05-21T19:58:33.651Z,18.28
2023-05-21T20:01:00.548Z,18.25
2023-05-21T20:03:28.543Z,18.23
2023-05-21T20:05:55.547Z,18.22
2023-05-21T20:08:22.945Z,18.21
2023-05-21T20:10:52.041Z,18.18
2023-05-21T20:13:19.661Z,18.16
2023-05-21T20:15:48.150Z,18.15
2023-05-21T20:18:15.651Z,18.15
2023-05-21T20:20:43.267Z,18.14
2023-05-21T20:23:10.058Z,18.12
2023-05-21T20:25:36.837Z,18.09
2023-05-21T20:28:05.103Z,18.07
2023-05-21T20:30:33.223Z,18.04
2023-05-21T20:33:03.104Z,18.01
2023-05-21T20:35:30.284Z,17.99
2023-05-21T20:37:57.187Z,17.97
2023-05-21T20:40:24.053Z,17.94
2023-05-21T20:42:53.122Z,17.94
2023-05-21T20:45:21.272Z,17.94
2023-05-21T20:47:50.319Z,17.94
2023-05-21T20:50:25.941Z,17.92
2023-05-21T20:52:52.936Z,17.89
2023-05-21T20:55:20.924Z,17.86
2023-05-21T20:57:47.774Z,17.82
2023-05-21T21:00:16.368Z,17.79
2023-05-21T21:02:43.753Z,17.73
2023-05-21T21:05:11.420Z,17.68
2023-05-21T21:07:38.276Z,17.63
2023-05-21T21:10:05.967Z,17.57
2023-05-21T21:12:32.906Z,17.52
2023-05-21T21:14:59.799Z,17.46
2023-05-21T21:17:26.866Z,17.43
2023-05-21T21:19:53.660Z,17.39
2023-05-21T21:22:21.063Z,17.36
2023-05-21T21:24:48.016Z,17.34
2023-05-21T21:27:15.012Z,17.32
2023-05-21T21:29:42.058Z,17.29
2023-05-21T21:32:08.829Z,17.26
2023-05-21T21:34:35.616Z,17.23
2023-05-21T21:37:02.451Z,17.21
2023-05-21T21:39:29.341Z,17.17
2023-05-21T21:41:56.228Z,17.14
2023-05-21T21:44:23.065Z,17.13
2023-05-21T21:46:50.048Z,17.10
2023-05-21T21:49:17.547Z,17.09
2023-05-21T21:51:44.657Z,17.07
2023-05-21T21:54:11.767Z,17.05
2023-05-21T21:56:38.731Z,17.02
2023-05-21T21:59:05.668Z,17.01
2023-05-21T22:01:32.854Z,16.99
2023-05-21T22:03:59.754Z,16.96
2023-05-21T22:06:27.708Z,16.93
2023-05-21T22:08:54.776Z,16.89
2023-05-21T22:11:22.096Z,16.87
2023-05-21T22:13:49.384Z,16.85
2023-05-21T22:16:16.285Z,16.82
2023-05-21T22:18:43.222Z,16.80
2023-05-21T22:21:10.699Z,16.78
2023-05-21T22:23:38.519Z,16.77
2023-05-21T22:26:06.424Z,16.75
2023-05-21T22:28:33.477Z,16.73
2023-05-21T22:31:00.415Z,16.72
2023-05-21T22:33:27.211Z,16.70
2023-05-21T22:35:54.734Z,16.68
2023-05-21T22:38:22.139Z,16.66
2023-05-21T22:40:48.970Z,16.65
2023-05-21T22:43:16.165Z,16.64
2023-05-21T22:45:44.368Z,16.62
2023-05-21T22:48:11.164Z,16.60
2023-05-21T22:50:38.728Z,16.59
2023-05-21T22:53:06.662Z,16.57
2023-05-21T22:55:33.549Z,16.53
2023-05-21T22:58:00.360Z,16.48
2023-05-21T23:00:27.231Z,16.43
2023-05-21T23:02:54.710Z,16.39
2023-05-21T23:05:22.506Z,16.37
2023-05-21T23:07:49.757Z,16.35
2023-05-21T23:10:16.756Z,16.32
2023-05-21T23:12:43.542Z,16.29
2023-05-21T23:15:11.087Z,16.26
2023-05-21T23:17:38.656Z,16.23
2023-05-21T23:20:07.653Z,16.20
2023-05-21T23:22:35.506Z,16.17
2023-05-21T23:25:02.685Z,16.14
2023-05-21T23:27:29.551Z,16.11
2023-05-21T23:29:56.532Z,16.07
2023-05-21T23:32:23.805Z,16.05
2023-05-21T23:34:50.996Z,16.03
2023-05-21T23:37:18.005Z,16.02
2023-05-21T23:39:48.374Z,16.01
2023-05-21T23:42:16.408Z,16.00
2023-05-21T23:44:43.339Z,15.98
2023-05-21T23:47:10.186Z,15.95
2023-05-21T23:49:36.998Z,15.93
2023-05-21T23:52:05.341Z,15.93
2023-05-21T23:57:26.653Z,15.96
2023-05-21T23:59:53.426Z,15.96
